Aviation Digital Data Service (ADDS)

Output produced by METARs form (1748 UTC 27 May 2015)
found at http://aviationweather.gov/adds/metars/
 
KLGA 271722Z 2718/2818 17015G22KT P6SM FEW020 BKN040 
     TEMPO 2722/2724 -SHRA SCT020 BKN040 
     FM280100 19012KT P6SM SCT010 BKN040 
     FM280400 19009KT P6SM SCT010 BKN040 
     FM280700 19007KT 5SM BR BKN010 
     FM281400 20011KT P6SM SCT012 BKN200